createdAt,value
2019-03-02T00:00:20.110Z,99.99
2019-03-02T00:01:21.500Z,99.99
2019-03-02T00:02:24.234Z,99.99
2019-03-02T00:03:24.300Z,99.99
2019-03-02T00:04:25.704Z,99.99
2019-03-02T00:05:27.110Z,99.99
2019-03-02T00:06:28.511Z,99.99
2019-03-02T00:07:29.924Z,99.99
2019-03-02T00:08:31.326Z,99.99
2019-03-02T00:09:34.611Z,99.99
2019-03-02T00:10:34.124Z,99.99
2019-03-02T00:11:35.528Z,99.99
2019-03-02T00:12:36.943Z,99.99
2019-03-02T00:13:39.674Z,99.99
2019-03-02T00:14:39.709Z,99.99
2019-03-02T00:15:41.131Z,99.99
2019-03-02T00:16:43.275Z,99.99
2019-03-02T00:17:43.895Z,99.99
2019-03-02T00:18:46.965Z,99.99
2019-03-02T00:19:48.405Z,99.99
2019-03-02T00:20:53.773Z,99.99
2019-03-02T00:21:51.169Z,99.99
2019-03-02T00:22:52.561Z,99.99
2019-03-02T00:23:54.312Z,99.99
2019-03-02T00:24:57.910Z,99.99
2019-03-02T00:25:56.754Z,99.99
2019-03-02T00:26:58.144Z,99.99
2019-03-02T00:27:59.572Z,99.99
2019-03-02T00:29:00.998Z,99.99
2019-03-02T00:30:02.415Z,99.99
2019-03-02T00:31:03.802Z,99.99
2019-03-02T00:32:05.877Z,99.99
2019-03-02T00:33:06.577Z,99.99
2019-03-02T00:34:07.966Z,99.99
2019-03-02T00:35:09.366Z,99.99
2019-03-02T00:36:10.768Z,99.99
2019-03-02T00:37:12.187Z,99.99
2019-03-02T00:38:13.578Z,99.99
2019-03-02T00:39:15.625Z,99.99
2019-03-02T00:40:16.357Z,99.99
2019-03-02T00:41:17.760Z,99.99
2019-03-02T00:42:19.157Z,99.99
2019-03-02T00:43:23.752Z,99.99
2019-03-02T00:44:21.909Z,99.99
2019-03-02T00:45:23.291Z,99.99
2019-03-02T00:46:24.839Z,99.99
2019-03-02T00:47:26.062Z,99.99
2019-03-02T00:48:27.469Z,99.99
2019-03-02T00:49:28.849Z,99.99
2019-03-02T00:50:30.269Z,99.99
2019-03-02T00:51:31.673Z,99.99
2019-03-02T00:52:33.074Z,99.99
2019-03-02T00:53:35.548Z,99.99
2019-03-02T00:54:35.850Z,99.99
2019-03-02T00:55:37.252Z,99.99
2019-03-02T00:56:39.886Z,99.99
2019-03-02T00:57:40.028Z,99.99
2019-03-02T00:58:41.430Z,99.99
2019-03-02T00:59:42.828Z,99.99
2019-03-02T01:00:44.240Z,99.99
2019-03-02T01:01:45.649Z,99.99
2019-03-02T01:02:47.046Z,99.99
2019-03-02T01:03:50.628Z,99.99
2019-03-02T01:04:49.780Z,99.99
2019-03-02T01:05:51.203Z,99.99
2019-03-02T01:06:52.594Z,99.99
2019-03-02T01:07:56.119Z,99.99
2019-03-02T01:08:55.357Z,99.99
2019-03-02T01:09:56.766Z,99.99
2019-03-02T01:10:58.956Z,99.99
2019-03-02T01:11:59.541Z,99.99
2019-03-02T01:13:00.961Z,99.99
2019-03-02T01:14:02.351Z,99.99
2019-03-02T01:15:05.125Z,99.99
2019-03-02T01:16:05.143Z,99.99
2019-03-02T01:17:06.582Z,99.99
2019-03-02T01:18:08.000Z,99.99
2019-03-02T01:19:09.432Z,99.99
2019-03-02T01:20:10.827Z,99.99
2019-03-02T01:21:12.250Z,99.99
2019-03-02T01:22:16.410Z,99.99
2019-03-02T01:23:15.018Z,99.99
2019-03-02T01:24:16.430Z,99.99
2019-03-02T01:25:17.832Z,99.99
2019-03-02T01:26:20.635Z,99.99
2019-03-02T01:27:20.572Z,99.99
2019-03-02T01:28:21.978Z,99.99
2019-03-02T01:29:23.380Z,99.99
2019-03-02T01:30:26.668Z,99.99
2019-03-02T01:31:26.153Z,99.99
2019-03-02T01:32:27.546Z,99.99
2019-03-02T01:33:29.355Z,99.99
2019-03-02T01:34:30.332Z,99.99
2019-03-02T01:35:31.699Z,99.99
2019-03-02T01:36:33.455Z,99.99
2019-03-02T01:37:34.487Z,99.99
2019-03-02T01:38:35.899Z,99.99
2019-03-02T01:39:37.293Z,99.99
2019-03-02T01:40:40.771Z,99.99
2019-03-02T01:41:40.045Z,99.99
2019-03-02T01:42:41.463Z,99.99
2019-03-02T01:43:42.879Z,99.99
2019-03-02T01:44:44.284Z,99.99
2019-03-02T01:45:45.677Z,99.99
2019-03-02T01:46:47.073Z,99.99
2019-03-02T01:47:51.232Z,99.99
2019-03-02T01:48:49.829Z,99.99
2019-03-02T01:49:51.236Z,99.99
2019-03-02T01:50:52.635Z,99.99
2019-03-02T01:51:54.709Z,99.99
2019-03-02T01:52:55.396Z,99.99
2019-03-02T01:53:56.792Z,99.99
2019-03-02T01:54:58.189Z,99.99
2019-03-02T01:56:02.648Z,99.99
2019-03-02T01:57:00.969Z,99.99
2019-03-02T01:58:02.364Z,99.99
2019-03-02T01:59:03.999Z,99.99
2019-03-02T02:00:05.132Z,99.99
2019-03-02T02:01:06.544Z,99.99
2019-03-02T02:02:07.944Z,99.99
2019-03-02T02:03:12.028Z,99.99
2019-03-02T02:04:10.703Z,99.99
2019-03-02T02:05:12.082Z,99.99
2019-03-02T02:06:13.505Z,99.99
2019-03-02T02:07:17.828Z,99.99
2019-03-02T02:08:16.289Z,99.99
2019-03-02T02:09:17.685Z,99.99
2019-03-02T02:10:19.125Z,99.99
2019-03-02T02:11:20.525Z,99.99
2019-03-02T02:12:21.921Z,99.99
2019-03-02T02:13:23.349Z,99.99
2019-03-02T02:14:24.735Z,99.99
2019-03-02T02:15:29.256Z,99.99
2019-03-02T02:16:27.535Z,99.99
2019-03-02T02:17:28.939Z,99.99
2019-03-02T02:18:30.340Z,99.99
2019-03-02T02:19:34.682Z,99.99
2019-03-02T02:20:33.145Z,99.99
2019-03-02T02:21:34.558Z,99.99
2019-03-02T02:22:37.972Z,99.99
2019-03-02T02:23:38.777Z,99.99
2019-03-02T02:24:38.690Z,99.99
2019-03-02T02:25:40.076Z,99.99
2019-03-02T02:26:43.861Z,99.99
2019-03-02T02:27:42.900Z,99.99
2019-03-02T02:28:44.306Z,99.99
2019-03-02T02:29:45.706Z,99.99
2019-03-02T02:30:47.104Z,99.99
2019-03-02T02:31:48.511Z,99.99
2019-03-02T02:32:49.913Z,99.99
2019-03-02T02:33:51.340Z,99.99
2019-03-02T02:34:56.381Z,99.99
2019-03-02T02:35:54.097Z,99.99
2019-03-02T02:36:58.418Z,99.99
2019-03-02T02:37:56.885Z,99.99
2019-03-02T02:38:58.303Z,99.99
2019-03-02T02:39:59.725Z,99.99
2019-03-02T02:41:01.651Z,99.99
2019-03-02T02:42:05.144Z,99.99
2019-03-02T02:43:04.429Z,99.99
2019-03-02T02:44:05.828Z,99.99
2019-03-02T02:45:11.064Z,99.99
2019-03-02T02:46:08.600Z,99.99
2019-03-02T02:47:12.341Z,99.99
2019-03-02T02:48:11.368Z,99.99
2019-03-02T02:49:12.773Z,99.99
2019-03-02T02:50:14.194Z,99.99
2019-03-02T02:51:15.603Z,99.99
2019-03-02T02:52:17.007Z,99.99
2019-03-02T02:53:18.405Z,99.99
2019-03-02T02:54:23.255Z,99.99
2019-03-02T02:55:21.175Z,99.99
2019-03-02T02:56:22.579Z,99.99
2019-03-02T02:57:23.972Z,99.99
2019-03-02T02:58:25.388Z,99.99
2019-03-02T02:59:26.782Z,99.99
2019-03-02T03:00:28.188Z,99.99
2019-03-02T03:01:33.259Z,99.99
2019-03-02T03:02:30.946Z,99.99
2019-03-02T03:03:32.351Z,99.99
2019-03-02T03:04:36.726Z,99.99
2019-03-02T03:05:35.111Z,99.99
2019-03-02T03:06:36.520Z,99.99
2019-03-02T03:07:37.931Z,99.99
2019-03-02T03:08:39.334Z,99.99
2019-03-02T03:09:45.196Z,99.99
2019-03-02T03:10:42.094Z,99.99
2019-03-02T03:11:44.498Z,99.99
2019-03-02T03:12:44.905Z,99.99
2019-03-02T03:13:46.299Z,99.99
2019-03-02T03:14:47.695Z,99.99
2019-03-02T03:15:49.131Z,99.99
2019-03-02T03:16:54.147Z,99.99
2019-03-02T03:17:51.906Z,99.99
2019-03-02T03:18:53.734Z,99.99
2019-03-02T03:19:54.657Z,99.99
2019-03-02T03:20:56.058Z,99.99
2019-03-02T03:22:02.061Z,99.99
2019-03-02T03:22:58.850Z,99.99
2019-03-02T03:24:03.815Z,99.99
2019-03-02T03:25:03.991Z,99.99
2019-03-02T03:26:02.988Z,99.99
2019-03-02T03:27:08.748Z,99.99
2019-03-02T03:28:05.753Z,99.99
2019-03-02T03:29:09.535Z,99.99
2019-03-02T03:30:08.539Z,99.99
2019-03-02T03:31:21.747Z,99.99
2019-03-02T03:32:12.315Z,99.99
2019-03-02T03:33:12.660Z,99.99
2019-03-02T03:34:14.114Z,99.99
2019-03-02T03:35:16.961Z,99.99
2019-03-02T03:36:16.796Z,99.99
2019-03-02T03:37:18.199Z,99.99
2019-03-02T03:38:19.596Z,99.99
2019-03-02T03:39:20.997Z,99.99
2019-03-02T03:40:25.478Z,99.99
2019-03-02T03:41:23.788Z,99.99
2019-03-02T03:42:25.199Z,99.99
2019-03-02T03:43:26.623Z,99.99
2019-03-02T03:44:28.043Z,99.99
2019-03-02T03:45:29.439Z,99.99
2019-03-02T03:46:30.841Z,99.99
2019-03-02T03:47:34.170Z,99.99
2019-03-02T03:48:33.627Z,99.99
2019-03-02T03:49:35.463Z,99.99
2019-03-02T03:50:36.414Z,99.99
2019-03-02T03:51:37.806Z,99.99
2019-03-02T03:52:39.191Z,99.99
2019-03-02T03:53:40.574Z,99.99
2019-03-02T03:54:45.418Z,99.99
2019-03-02T03:55:43.334Z,99.99
2019-03-02T03:56:44.730Z,99.99
2019-03-02T03:57:46.127Z,99.99
2019-03-02T03:58:47.522Z,99.99
2019-03-02T03:59:53.543Z,99.99
2019-03-02T04:00:50.271Z,99.99
2019-03-02T04:01:52.011Z,99.99
2019-03-02T04:02:53.055Z,99.99
2019-03-02T04:03:54.473Z,99.99
2019-03-02T04:04:55.864Z,99.99
2019-03-02T04:05:57.246Z,99.99
2019-03-02T04:07:01.258Z,99.99
2019-03-02T04:08:00.021Z,99.99
2019-03-02T04:09:03.151Z,99.99
2019-03-02T04:10:02.829Z,99.99
2019-03-02T04:11:04.571Z,99.99
2019-03-02T04:12:06.452Z,99.99
2019-03-02T04:13:07.120Z,99.99
2019-03-02T04:14:08.522Z,99.99
2019-03-02T04:15:09.937Z,99.99
2019-03-02T04:16:16.044Z,99.99
2019-03-02T04:17:13.380Z,99.99
2019-03-02T04:18:16.350Z,99.99
2019-03-02T04:19:16.197Z,99.99
2019-03-02T04:20:17.631Z,99.99
2019-03-02T04:21:23.456Z,99.99
2019-03-02T04:22:20.420Z,99.99
2019-03-02T04:23:22.221Z,99.99
2019-03-02T04:24:23.201Z,99.99
2019-03-02T04:25:24.633Z,99.99
2019-03-02T04:26:26.031Z,99.99
2019-03-02T04:27:27.464Z,99.99
2019-03-02T04:28:31.347Z,99.99
2019-03-02T04:29:30.230Z,99.99
2019-03-02T04:30:32.819Z,99.99
2019-03-02T04:31:33.028Z,99.99
2019-03-02T04:32:34.463Z,99.99
2019-03-02T04:33:39.206Z,99.99
2019-03-02T04:34:38.259Z,99.99
2019-03-02T04:35:39.645Z,99.99
2019-03-02T04:36:43.116Z,99.99
2019-03-02T04:37:42.463Z,99.99
2019-03-02T04:38:43.872Z,99.99
2019-03-02T04:39:46.452Z,99.99
2019-03-02T04:40:46.690Z,99.99
2019-03-02T04:41:48.094Z,99.99
2019-03-02T04:42:50.218Z,99.99
2019-03-02T04:43:53.872Z,99.99
2019-03-02T04:44:52.242Z,99.99
2019-03-02T04:45:53.653Z,99.99
2019-03-02T04:46:55.078Z,99.99
2019-03-02T04:47:59.749Z,99.99
2019-03-02T04:48:57.860Z,99.99
2019-03-02T04:49:59.286Z,99.99
2019-03-02T04:51:02.589Z,99.99
2019-03-02T04:52:02.083Z,99.99
2019-03-02T04:53:03.486Z,99.99
2019-03-02T04:54:04.884Z,99.99
2019-03-02T04:55:09.304Z,99.99
2019-03-02T04:56:07.642Z,99.99
2019-03-02T04:57:09.015Z,99.99
2019-03-02T04:58:11.896Z,99.99
2019-03-02T04:59:11.766Z,99.99
2019-03-02T05:00:13.179Z,99.99
2019-03-02T05:01:14.575Z,99.99
2019-03-02T05:02:16.737Z,99.99
2019-03-02T05:03:17.359Z,99.99
2019-03-02T05:04:18.745Z,99.99
2019-03-02T05:05:20.153Z,99.99
2019-03-02T05:06:21.573Z,99.99
2019-03-02T05:07:22.971Z,99.99
2019-03-02T05:08:24.403Z,99.99
2019-03-02T05:09:25.803Z,99.99
2019-03-02T05:10:28.626Z,99.99
2019-03-02T05:11:28.570Z,99.99
2019-03-02T05:12:29.994Z,99.99
2019-03-02T05:13:31.416Z,99.99
2019-03-02T05:14:32.840Z,99.99
2019-03-02T05:15:34.246Z,99.99
2019-03-02T05:16:35.653Z,99.99
2019-03-02T05:17:39.784Z,99.99
2019-03-02T05:18:38.427Z,99.99
2019-03-02T05:19:39.823Z,99.99
2019-03-02T05:20:42.320Z,99.99
2019-03-02T05:21:43.574Z,99.99
2019-03-02T05:22:43.998Z,99.99
2019-03-02T05:23:45.685Z,99.99
2019-03-02T05:24:47.088Z,99.99
2019-03-02T05:25:51.648Z,99.99
2019-03-02T05:26:49.868Z,99.99
2019-03-02T05:27:51.277Z,99.99
2019-03-02T05:28:52.662Z,99.99
2019-03-02T05:29:54.406Z,99.99
2019-03-02T05:30:55.407Z,99.99
2019-03-02T05:31:56.806Z,99.99
2019-03-02T05:32:58.205Z,99.99
2019-03-02T05:34:00.693Z,99.99
2019-03-02T05:35:00.981Z,99.99
2019-03-02T05:36:02.387Z,99.99
2019-03-02T05:37:03.921Z,99.99
2019-03-02T05:38:05.126Z,99.99
2019-03-02T05:39:06.522Z,99.99
2019-03-02T05:40:07.914Z,99.99
2019-03-02T05:41:09.324Z,99.99
2019-03-02T05:42:13.570Z,99.99
2019-03-02T05:43:12.066Z,99.99
2019-03-02T05:44:13.445Z,99.99
2019-03-02T05:45:14.874Z,99.99
2019-03-02T05:46:16.258Z,99.99
2019-03-02T05:47:17.656Z,99.99
2019-03-02T05:48:19.052Z,99.99
2019-03-02T05:49:20.439Z,99.99
2019-03-02T05:50:21.830Z,99.99
2019-03-02T05:51:23.216Z,99.99
2019-03-02T05:52:24.599Z,99.99
2019-03-02T05:53:26.737Z,99.99
2019-03-02T05:54:27.342Z,99.99
2019-03-02T05:55:28.751Z,99.99
2019-03-02T05:56:30.145Z,99.99
2019-03-02T05:57:31.581Z,99.99
2019-03-02T05:58:32.982Z,99.99
2019-03-02T05:59:34.396Z,99.99
2019-03-02T06:00:37.754Z,99.99
2019-03-02T06:01:40.124Z,99.99
2019-03-02T06:02:38.553Z,99.99
2019-03-02T06:03:42.542Z,99.99
2019-03-02T06:04:41.321Z,99.99
2019-03-02T06:05:42.727Z,99.99
2019-03-02T06:06:44.149Z,99.99
2019-03-02T06:07:45.566Z,99.99
2019-03-02T06:08:47.048Z,99.99
2019-03-02T06:09:50.167Z,99.99
2019-03-02T06:10:49.777Z,99.99
2019-03-02T06:11:51.178Z,99.99
2019-03-02T06:12:53.036Z,99.99
2019-03-02T06:13:54.004Z,99.99
2019-03-02T06:14:55.402Z,99.99
2019-03-02T06:15:56.783Z,99.99
2019-03-02T06:16:58.605Z,99.99
2019-03-02T06:17:59.655Z,99.99
2019-03-02T06:19:01.052Z,99.99
2019-03-02T06:20:02.468Z,99.99
2019-03-02T06:21:03.988Z,99.99
2019-03-02T06:22:05.424Z,99.99
2019-03-02T06:23:06.823Z,99.99
2019-03-02T06:24:08.221Z,99.99
2019-03-02T06:25:14.583Z,99.99
2019-03-02T06:26:10.977Z,99.99
2019-03-02T06:27:12.377Z,99.99
2019-03-02T06:28:13.763Z,99.99
2019-03-02T06:29:15.187Z,99.99
2019-03-02T06:30:16.583Z,99.99
2019-03-02T06:31:19.182Z,99.99
2019-03-02T06:32:19.468Z,99.99
2019-03-02T06:33:20.856Z,99.99
2019-03-02T06:34:22.294Z,99.99
2019-03-02T06:35:23.715Z,99.99
2019-03-02T06:36:25.107Z,99.99
2019-03-02T06:37:26.535Z,99.99
2019-03-02T06:38:28.917Z,99.99
2019-03-02T06:39:29.296Z,99.99
2019-03-02T06:40:31.380Z,99.99
2019-03-02T06:41:33.171Z,99.99
2019-03-02T06:42:34.156Z,99.99
2019-03-02T06:43:35.556Z,99.99
2019-03-02T06:44:36.984Z,99.99
2019-03-02T06:45:40.547Z,99.99
2019-03-02T06:46:39.777Z,99.99
2019-03-02T06:47:41.203Z,99.99
2019-03-02T06:48:45.203Z,99.99
2019-03-02T06:49:44.010Z,99.99
2019-03-02T06:50:45.429Z,99.99
2019-03-02T06:51:48.192Z,99.99
2019-03-02T06:52:49.071Z,99.99
2019-03-02T06:53:50.563Z,99.99
2019-03-02T06:54:52.004Z,99.99
2019-03-02T06:55:56.947Z,99.99
2019-03-02T06:56:58.047Z,99.99
2019-03-02T06:57:57.169Z,99.99
2019-03-02T06:59:00.642Z,99.99
2019-03-02T06:59:59.944Z,99.99
2019-03-02T07:01:01.384Z,99.99
2019-03-02T07:02:03.787Z,99.99
2019-03-02T07:03:06.740Z,99.99
2019-03-02T07:04:06.569Z,99.99
2019-03-02T07:05:08.002Z,99.99
2019-03-02T07:06:11.669Z,99.99
2019-03-02T07:07:10.806Z,99.99
2019-03-02T07:08:12.192Z,99.99
2019-03-02T07:09:13.610Z,99.99
2019-03-02T07:10:17.760Z,99.99
2019-03-02T07:11:16.426Z,99.99
2019-03-02T07:12:17.820Z,99.99
2019-03-02T07:13:21.194Z,99.99
2019-03-02T07:14:20.643Z,99.99
2019-03-02T07:15:22.083Z,99.99
2019-03-02T07:16:23.483Z,99.99
2019-03-02T07:17:27.593Z,99.99
2019-03-02T07:18:26.275Z,99.99
2019-03-02T07:19:27.693Z,99.99
2019-03-02T07:20:29.100Z,99.99
2019-03-02T07:21:30.535Z,99.99
2019-03-02T07:22:31.936Z,99.99
2019-03-02T07:23:33.364Z,99.99
2019-03-02T07:24:34.723Z,99.99
2019-03-02T07:25:36.961Z,99.99
2019-03-02T07:26:37.581Z,99.99
2019-03-02T07:27:39.022Z,99.99
2019-03-02T07:28:42.216Z,99.99
2019-03-02T07:29:41.862Z,99.99
2019-03-02T07:30:43.314Z,99.99
2019-03-02T07:31:44.732Z,99.99
2019-03-02T07:32:46.172Z,99.99
2019-03-02T07:33:47.573Z,99.99
2019-03-02T07:34:48.994Z,99.99
2019-03-02T07:35:51.832Z,99.99
2019-03-02T07:36:51.740Z,99.99
2019-03-02T07:37:53.132Z,99.99
2019-03-02T07:38:56.559Z,99.99
2019-03-02T07:39:56.007Z,99.99
2019-03-02T07:40:57.444Z,99.99
2019-03-02T07:41:58.869Z,99.99
2019-03-02T07:43:00.225Z,99.99
2019-03-02T07:44:01.639Z,99.99
2019-03-02T07:45:03.045Z,99.99
2019-03-02T07:46:07.968Z,99.99
2019-03-02T07:47:06.497Z,99.99
2019-03-02T07:48:07.942Z,99.99
2019-03-02T07:49:12.975Z,99.99
2019-03-02T07:50:10.678Z,99.99
2019-03-02T07:51:12.075Z,99.99
2019-03-02T07:52:13.729Z,99.99
2019-03-02T07:53:14.889Z,99.99
2019-03-02T07:54:16.286Z,99.99
2019-03-02T07:55:19.138Z,99.99
2019-03-02T07:56:19.050Z,99.99
2019-03-02T07:57:20.485Z,99.99
2019-03-02T07:58:21.934Z,99.99
2019-03-02T07:59:26.450Z,99.99
2019-03-02T08:00:24.804Z,99.99
2019-03-02T08:01:26.225Z,99.99
2019-03-02T08:02:29.633Z,99.99
2019-03-02T08:03:29.012Z,99.99
2019-03-02T08:04:30.479Z,99.99
2019-03-02T08:05:31.899Z,99.99
2019-03-02T08:06:33.294Z,99.99
2019-03-02T08:07:38.020Z,99.99
2019-03-02T08:08:36.204Z,99.99
2019-03-02T08:09:37.676Z,99.99
2019-03-02T08:10:39.817Z,99.99
2019-03-02T08:11:40.525Z,99.99
2019-03-02T08:12:41.995Z,99.99
2019-03-02T08:13:43.507Z,99.99
2019-03-02T08:14:47.763Z,99.99
2019-03-02T08:15:46.535Z,99.99
2019-03-02T08:16:47.663Z,99.99
2019-03-02T08:17:50.027Z,99.99
2019-03-02T08:18:50.511Z,99.99
2019-03-02T08:19:51.900Z,99.99
2019-03-02T08:20:53.852Z,99.99
2019-03-02T08:21:54.737Z,99.99
2019-03-02T08:22:56.154Z,99.99
2019-03-02T08:23:57.571Z,99.99
2019-03-02T08:24:58.981Z,99.99
2019-03-02T08:26:00.380Z,99.99
2019-03-02T08:27:01.792Z,99.99
2019-03-02T08:28:03.210Z,99.99
2019-03-02T08:29:04.636Z,99.99
2019-03-02T08:30:06.028Z,99.99
2019-03-02T08:31:09.025Z,99.99
2019-03-02T08:32:10.258Z,99.99
2019-03-02T08:33:10.197Z,99.99
2019-03-02T08:34:11.606Z,99.99
2019-03-02T08:35:13.008Z,99.99
2019-03-02T08:36:16.949Z,99.99
2019-03-02T08:37:16.585Z,99.99
2019-03-02T08:38:17.329Z,99.99
2019-03-02T08:39:18.833Z,99.99
2019-03-02T08:40:23.380Z,99.99
2019-03-02T08:41:22.211Z,99.99
2019-03-02T08:42:23.771Z,99.99
2019-03-02T08:43:25.215Z,99.99
2019-03-02T08:44:26.633Z,99.99
2019-03-02T08:45:30.876Z,99.99
2019-03-02T08:46:29.453Z,99.99
2019-03-02T08:47:30.902Z,99.99
2019-03-02T08:48:32.691Z,99.99
2019-03-02T08:49:33.671Z,99.99
2019-03-02T08:50:35.089Z,99.99
2019-03-02T08:51:36.503Z,99.99
2019-03-02T08:52:37.911Z,99.99
2019-03-02T08:53:39.332Z,99.99
2019-03-02T08:54:40.744Z,99.99
2019-03-02T08:55:42.141Z,99.99
2019-03-02T08:56:43.787Z,99.99
2019-03-02T08:57:45.079Z,99.99
2019-03-02T08:58:46.609Z,99.99
2019-03-02T08:59:48.130Z,99.99
2019-03-02T09:00:51.485Z,99.99
2019-03-02T09:01:51.303Z,99.99
2019-03-02T09:02:55.014Z,99.99
2019-03-02T09:03:54.976Z,99.99
2019-03-02T09:04:56.588Z,99.99
2019-03-02T09:05:58.128Z,99.99
2019-03-02T09:06:59.676Z,99.99
2019-03-02T09:08:01.128Z,99.99
2019-03-02T09:09:02.546Z,99.99
2019-03-02T09:10:03.956Z,99.99
2019-03-02T09:11:05.363Z,99.99
2019-03-02T09:12:06.809Z,99.99
2019-03-02T09:13:08.239Z,99.99
2019-03-02T09:14:12.586Z,99.99
2019-03-02T09:15:11.108Z,99.99
2019-03-02T09:16:12.563Z,99.99
2019-03-02T09:17:17.541Z,99.99
2019-03-02T09:18:15.389Z,99.99
2019-03-02T09:19:20.475Z,99.99
2019-03-02T09:20:19.296Z,99.99
2019-03-02T09:21:20.731Z,99.99
2019-03-02T09:22:24.240Z,99.99
2019-03-02T09:23:23.558Z,99.97
2019-03-02T09:24:24.979Z,99.44
2019-03-02T09:25:28.015Z,99.30
2019-03-02T09:26:27.778Z,98.83
2019-03-02T09:27:29.192Z,98.26
2019-03-02T09:28:30.662Z,97.69
2019-03-02T09:29:32.104Z,97.02
2019-03-02T09:30:33.526Z,96.08
2019-03-02T09:31:35.166Z,95.31
2019-03-02T09:32:36.362Z,95.89
2019-03-02T09:33:37.850Z,95.70
2019-03-02T09:34:40.502Z,94.84
2019-03-02T09:35:40.700Z,94.18
2019-03-02T09:36:43.461Z,93.51
2019-03-02T09:37:43.877Z,92.94
2019-03-02T09:38:44.880Z,92.18
2019-03-02T09:39:46.303Z,92.85
2019-03-02T09:40:49.123Z,93.23
2019-03-02T09:41:49.059Z,93.08
2019-03-02T09:42:50.461Z,92.04
2019-03-02T09:43:55.316Z,91.94
2019-03-02T09:44:53.243Z,91.66
2019-03-02T09:45:54.665Z,90.90
2019-03-02T09:46:56.079Z,90.80
2019-03-02T09:47:57.485Z,90.99
2019-03-02T09:49:00.702Z,91.19
2019-03-02T09:50:00.331Z,90.33
2019-03-02T09:51:01.789Z,89.76
2019-03-02T09:52:03.833Z,90.14
2019-03-02T09:53:05.236Z,89.38
2019-03-02T09:54:06.634Z,89.00
2019-03-02T09:55:08.068Z,88.71
2019-03-02T09:56:09.438Z,88.62
2019-03-02T09:57:10.834Z,87.86
2019-03-02T09:58:12.233Z,87.95
2019-03-02T09:59:13.648Z,88.15
2019-03-02T10:00:15.071Z,87.57
2019-03-02T10:01:16.485Z,87.01
2019-03-02T10:02:17.880Z,86.57
2019-03-02T10:03:19.274Z,86.19
2019-03-02T10:04:20.690Z,85.62
2019-03-02T10:05:22.100Z,85.81
2019-03-02T10:06:25.357Z,85.05
2019-03-02T10:07:25.218Z,84.86
2019-03-02T10:08:26.248Z,84.58
2019-03-02T10:09:27.637Z,84.48
2019-03-02T10:10:30.730Z,84.67
2019-03-02T10:11:30.423Z,84.86
2019-03-02T10:12:31.843Z,84.48
2019-03-02T10:13:33.267Z,83.53
2019-03-02T10:14:35.112Z,83.72
2019-03-02T10:15:36.075Z,84.01
2019-03-02T10:16:37.493Z,83.53
2019-03-02T10:17:39.780Z,83.15
2019-03-02T10:18:40.293Z,82.87
2019-03-02T10:19:41.709Z,83.15
2019-03-02T10:20:43.592Z,83.15
2019-03-02T10:21:47.456Z,82.68
2019-03-02T10:22:45.902Z,82.68
2019-03-02T10:23:47.312Z,83.06
2019-03-02T10:24:49.779Z,82.96
2019-03-02T10:25:50.088Z,83.82
2019-03-02T10:26:51.484Z,83.15
2019-03-02T10:27:53.888Z,83.44
2019-03-02T10:28:54.261Z,82.87
2019-03-02T10:29:55.663Z,82.68
2019-03-02T10:30:57.093Z,82.29
2019-03-02T10:31:58.518Z,82.39
2019-03-02T10:32:59.944Z,82.20
2019-03-02T10:34:02.790Z,82.20
2019-03-02T10:35:02.825Z,82.20
2019-03-02T10:36:04.289Z,82.01
2019-03-02T10:37:07.210Z,82.10
2019-03-02T10:38:07.075Z,82.29
2019-03-02T10:39:09.266Z,82.01
2019-03-02T10:40:10.688Z,82.20
2019-03-02T10:41:12.113Z,81.92
2019-03-02T10:42:13.531Z,81.82
2019-03-02T10:43:14.951Z,81.25
2019-03-02T10:44:17.806Z,81.63
2019-03-02T10:45:17.755Z,81.44
2019-03-02T10:46:19.181Z,81.63
2019-03-02T10:47:20.596Z,81.16
2019-03-02T10:48:22.031Z,81.16
2019-03-02T10:49:23.421Z,80.02
2019-03-02T10:50:25.091Z,79.83
2019-03-02T10:51:26.226Z,79.92
2019-03-02T10:52:27.631Z,79.39
2019-03-02T10:53:29.042Z,79.68
2019-03-02T10:54:31.646Z,79.49
2019-03-02T10:55:31.844Z,79.58
2019-03-02T10:56:33.250Z,79.11
2019-03-02T10:57:34.658Z,78.34
2019-03-02T10:58:38.670Z,77.97
2019-03-02T10:59:37.455Z,77.97
2019-03-02T11:00:38.886Z,77.11
2019-03-02T11:01:43.277Z,76.82
2019-03-02T11:02:41.708Z,76.82
2019-03-02T11:03:43.126Z,76.35
2019-03-02T11:04:45.696Z,77.01
2019-03-02T11:05:45.939Z,77.11
2019-03-02T11:06:49.325Z,77.11
2019-03-02T11:07:49.052Z,76.35
2019-03-02T11:08:50.117Z,76.63
2019-03-02T11:09:51.507Z,76.63
2019-03-02T11:10:53.252Z,76.54
2019-03-02T11:11:54.295Z,77.01
2019-03-02T11:12:55.701Z,76.44
2019-03-02T11:13:57.113Z,76.35
2019-03-02T11:14:58.519Z,75.96
2019-03-02T11:16:00.039Z,76.06
2019-03-02T11:17:01.623Z,75.96
2019-03-02T11:18:02.819Z,75.59
2019-03-02T11:19:04.330Z,74.73
2019-03-02T11:20:05.576Z,73.78
2019-03-02T11:21:06.990Z,73.78
2019-03-02T11:22:10.974Z,73.88
2019-03-02T11:23:09.751Z,73.30
2019-03-02T11:24:11.152Z,73.69
2019-03-02T11:25:12.564Z,73.88
2019-03-02T11:26:14.032Z,74.07
2019-03-02T11:27:15.433Z,73.69
2019-03-02T11:28:16.880Z,74.16
2019-03-02T11:29:21.103Z,73.78
2019-03-02T11:30:19.666Z,73.88
2019-03-02T11:31:21.075Z,73.69
2019-03-02T11:32:22.473Z,73.30
2019-03-02T11:33:23.890Z,73.40
2019-03-02T11:34:25.288Z,73.59
2019-03-02T11:35:26.683Z,73.11
2019-03-02T11:36:28.121Z,73.21
2019-03-02T11:37:29.481Z,73.11
2019-03-02T11:38:30.897Z,73.21
2019-03-02T11:39:32.311Z,73.30
2019-03-02T11:40:33.717Z,72.74
2019-03-02T11:41:35.110Z,73.21
2019-03-02T11:42:36.506Z,73.21
2019-03-02T11:43:37.915Z,73.02
2019-03-02T11:44:39.390Z,72.26
2019-03-02T11:45:40.680Z,72.45
2019-03-02T11:46:42.102Z,71.78
2019-03-02T11:47:44.783Z,72.35
2019-03-02T11:48:48.059Z,72.55
2019-03-02T11:49:46.245Z,72.64
2019-03-02T11:50:50.990Z,72.64
2019-03-02T11:51:49.018Z,72.26
2019-03-02T11:52:50.550Z,72.26
2019-03-02T11:53:52.139Z,72.83
2019-03-02T11:54:53.138Z,71.78
2019-03-02T11:55:54.536Z,71.31
2019-03-02T11:56:55.944Z,71.22
2019-03-02T11:57:58.264Z,71.22
2019-03-02T11:58:58.790Z,71.88
2019-03-02T12:00:00.235Z,71.59
2019-03-02T12:01:01.640Z,71.50
2019-03-02T12:02:03.937Z,71.12
2019-03-02T12:03:04.463Z,70.83
2019-03-02T12:04:05.873Z,70.17
2019-03-02T12:05:09.089Z,70.26
2019-03-02T12:06:08.669Z,69.69
2019-03-02T12:07:10.693Z,70.54
2019-03-02T12:08:11.445Z,70.54
2019-03-02T12:09:12.857Z,70.07
2019-03-02T12:10:14.302Z,69.69
2019-03-02T12:11:15.679Z,68.96
2019-03-02T12:12:18.278Z,69.06
2019-03-02T12:13:18.450Z,69.06
2019-03-02T12:14:19.873Z,69.25
2019-03-02T12:15:21.267Z,69.06
2019-03-02T12:16:26.262Z,69.25
2019-03-02T12:17:24.053Z,68.87
2019-03-02T12:18:25.454Z,68.40
2019-03-02T12:19:29.630Z,68.40
2019-03-02T12:20:28.254Z,68.01
2019-03-02T12:21:29.661Z,67.63
2019-03-02T12:22:34.367Z,67.54
2019-03-02T12:23:34.030Z,67.35
2019-03-02T12:24:33.836Z,66.97
2019-03-02T12:25:35.349Z,67.07
2019-03-02T12:26:36.622Z,67.07
2019-03-02T12:27:38.021Z,66.68
2019-03-02T12:28:40.168Z,67.07
2019-03-02T12:29:41.498Z,67.73
2019-03-02T12:30:42.157Z,66.87
2019-03-02T12:31:43.559Z,66.39
2019-03-02T12:32:45.800Z,66.59
2019-03-02T12:33:46.344Z,65.92
2019-03-02T12:34:47.756Z,66.02
2019-03-02T12:35:49.169Z,65.83
2019-03-02T12:36:53.194Z,65.83
2019-03-02T12:37:51.943Z,65.73
2019-03-02T12:38:53.355Z,65.92
2019-03-02T12:39:56.697Z,66.49
2019-03-02T12:40:56.167Z,66.20
2019-03-02T12:41:58.048Z,65.45
2019-03-02T12:42:59.447Z,65.64
2019-03-02T12:44:00.859Z,65.45
2019-03-02T12:45:02.257Z,65.06
2019-03-02T12:46:05.015Z,64.87
2019-03-02T12:47:05.039Z,64.02
2019-03-02T12:48:06.450Z,64.21
2019-03-02T12:49:10.985Z,64.40
2019-03-02T12:50:09.222Z,65.06
2019-03-02T12:51:10.677Z,64.78
2019-03-02T12:52:12.260Z,64.97
2019-03-02T12:53:13.428Z,64.11
2019-03-02T12:54:14.870Z,64.21
2019-03-02T12:55:20.062Z,64.31
2019-03-02T12:56:17.647Z,64.11
2019-03-02T12:57:19.042Z,64.31
2019-03-02T12:58:22.911Z,63.73
2019-03-02T12:59:21.857Z,64.11
2019-03-02T13:00:23.256Z,63.64
2019-03-02T13:01:24.673Z,63.35
2019-03-02T13:02:26.975Z,63.64
2019-03-02T13:03:31.041Z,63.73
2019-03-02T13:04:29.780Z,64.11
2019-03-02T13:05:31.193Z,64.02
2019-03-02T13:06:35.635Z,63.07
2019-03-02T13:07:33.986Z,63.17
2019-03-02T13:08:35.403Z,63.35
2019-03-02T13:09:39.996Z,63.45
2019-03-02T13:10:38.235Z,63.45